createdAt,value
2023-03-06T00:00:51.649Z,0.90
2023-03-06T00:03:23.484Z,0.80
2023-03-06T00:05:58.181Z,0.60
2023-03-06T00:08:31.320Z,0.50
2023-03-06T00:11:02.533Z,0.30
2023-03-06T00:13:33.216Z,0.20
2023-03-06T00:16:03.919Z,0.10
2023-03-06T00:18:36.492Z,0.00
2023-03-06T00:21:10.382Z,0.00
2023-03-06T00:23:42.544Z,0.00
2023-03-06T00:26:13.049Z,0.00
2023-03-06T00:28:43.299Z,0.00
2023-03-06T00:31:14.070Z,-0.10
2023-03-06T00:33:44.446Z,-0.30
2023-03-06T00:36:14.805Z,-0.30
2023-03-06T00:38:48.699Z,-0.40
2023-03-06T00:41:18.944Z,-0.50
2023-03-06T00:43:49.558Z,-0.30
2023-03-06T00:46:21.676Z,-0.40
2023-03-06T00:48:51.939Z,-0.50
2023-03-06T00:51:22.442Z,-0.50
2023-03-06T00:53:56.752Z,-0.60
2023-03-06T00:56:28.580Z,-0.50
2023-03-06T00:58:59.265Z,-0.40
2023-03-06T01:01:29.956Z,-0.30
2023-03-06T01:04:00.044Z,-0.30
2023-03-06T01:06:31.182Z,-0.30
2023-03-06T01:09:03.222Z,-0.20
2023-03-06T01:11:34.028Z,-0.20
2023-03-06T01:14:04.402Z,0.00
2023-03-06T01:16:34.683Z,0.10
2023-03-06T01:19:04.895Z,0.20
2023-03-06T01:21:35.458Z,0.30
2023-03-06T01:24:07.455Z,0.30
2023-03-06T01:26:37.589Z,0.30
2023-03-06T01:29:08.294Z,0.40
2023-03-06T01:31:38.513Z,0.50
2023-03-06T01:34:08.576Z,0.50
2023-03-06T01:36:38.842Z,0.50
2023-03-06T01:39:10.792Z,0.40
2023-03-06T01:41:40.946Z,0.40
2023-03-06T01:44:14.242Z,0.20
2023-03-06T01:46:44.885Z,0.10
2023-03-06T01:49:19.162Z,0.00
2023-03-06T01:51:53.358Z,-0.10
2023-03-06T01:54:28.974Z,-0.10
2023-03-06T01:57:02.784Z,0.00
2023-03-06T01:59:35.076Z,-0.10
2023-03-06T02:02:06.116Z,-0.20
2023-03-06T02:04:37.102Z,-0.30
2023-03-06T02:07:08.068Z,-0.50
2023-03-06T02:09:41.498Z,-0.60
2023-03-06T02:12:15.545Z,-0.80
2023-03-06T02:14:46.726Z,-1.00
2023-03-06T02:17:19.860Z,-1.00
2023-03-06T02:19:58.503Z,-1.00
2023-03-06T02:22:35.671Z,-1.00
2023-03-06T02:25:15.856Z,-1.10
2023-03-06T02:27:48.572Z,-1.10
2023-03-06T02:30:20.402Z,-1.10
2023-03-06T02:32:50.802Z,-1.20
2023-03-06T02:35:22.988Z,-1.10
2023-03-06T02:37:53.291Z,-1.10
2023-03-06T02:40:25.643Z,-1.30
2023-03-06T02:42:59.765Z,-1.30
2023-03-06T02:45:36.436Z,-1.30
2023-03-06T02:48:07.817Z,-1.40
2023-03-06T02:50:38.080Z,-1.30
2023-03-06T02:53:09.426Z,-1.30
2023-03-06T02:55:40.076Z,-1.30
2023-03-06T02:58:13.196Z,-1.30
2023-03-06T03:00:43.343Z,-1.30
2023-03-06T03:03:14.053Z,-1.40
2023-03-06T03:05:44.259Z,-1.50
2023-03-06T03:08:15.559Z,-1.50
2023-03-06T03:10:45.695Z,-1.40
2023-03-06T03:13:18.009Z,-1.50
2023-03-06T03:15:48.276Z,-1.50
2023-03-06T03:18:18.430Z,-1.50
2023-03-06T03:20:48.600Z,-1.50
2023-03-06T03:23:19.106Z,-1.40
2023-03-06T03:25:49.155Z,-1.40
2023-03-06T03:28:21.521Z,-1.40
2023-03-06T03:30:52.068Z,-1.30
2023-03-06T03:33:23.512Z,-1.30
2023-03-06T03:36:00.965Z,-1.30
2023-03-06T03:38:31.729Z,-1.40
2023-03-06T03:41:02.963Z,-1.40
2023-03-06T03:43:34.875Z,-1.40
2023-03-06T03:46:05.058Z,-1.50
2023-03-06T03:48:35.309Z,-1.60
2023-03-06T03:51:11.082Z,-1.70
2023-03-06T03:53:41.905Z,-1.80
2023-03-06T03:56:12.319Z,-1.80
2023-03-06T03:58:44.216Z,-1.90
2023-03-06T04:01:14.253Z,-1.90
2023-03-06T04:03:44.351Z,-1.90
2023-03-06T04:06:14.502Z,-2.00
2023-03-06T04:08:45.491Z,-2.00
2023-03-06T04:11:15.714Z,-2.00
2023-03-06T04:13:47.405Z,-2.00
2023-03-06T04:16:17.664Z,-1.90
2023-03-06T04:18:47.920Z,-2.00
2023-03-06T04:21:18.112Z,-2.00
2023-03-06T04:23:48.448Z,-2.00
2023-03-06T04:26:18.527Z,-1.90
2023-03-06T04:28:50.169Z,-1.90
2023-03-06T04:31:20.394Z,-1.90
2023-03-06T04:33:50.655Z,-1.80
2023-03-06T04:36:29.676Z,-1.80
2023-03-06T04:38:59.935Z,-1.70
2023-03-06T04:41:31.894Z,-1.60
2023-03-06T04:44:03.980Z,-1.50
2023-03-06T04:46:34.236Z,-1.30
2023-03-06T04:49:04.510Z,-1.30
2023-03-06T04:51:37.356Z,-1.10
2023-03-06T04:54:08.165Z,-0.90
2023-03-06T04:56:38.366Z,-1.00
2023-03-06T04:59:10.502Z,-1.00
2023-03-06T05:01:40.559Z,-1.00
2023-03-06T05:04:10.813Z,-1.00
2023-03-06T05:06:40.866Z,-0.90
2023-03-06T05:09:11.686Z,-1.00
2023-03-06T05:11:41.717Z,-1.10
2023-03-06T05:14:13.380Z,-1.20
2023-03-06T05:16:43.669Z,-1.30
2023-03-06T05:19:14.020Z,-1.40
2023-03-06T05:21:44.191Z,-1.60
2023-03-06T05:24:14.456Z,-1.70
2023-03-06T05:26:44.541Z,-1.90
2023-03-06T05:29:16.266Z,-2.00
2023-03-06T05:31:46.701Z,-2.20
2023-03-06T05:34:17.240Z,-2.30
2023-03-06T05:36:47.987Z,-2.30
2023-03-06T05:39:18.134Z,-2.40
2023-03-06T05:41:48.487Z,-2.50
2023-03-06T05:44:20.214Z,-2.50
2023-03-06T05:46:52.146Z,-2.50
2023-03-06T05:49:22.497Z,-2.50
2023-03-06T05:51:52.616Z,-2.50
2023-03-06T05:54:22.714Z,-2.50
2023-03-06T05:56:53.224Z,-2.50
2023-03-06T05:59:28.620Z,-2.50
2023-03-06T06:01:59.120Z,-2.60
2023-03-06T06:04:29.661Z,-2.70
2023-03-06T06:07:02.125Z,-2.90
2023-03-06T06:09:33.201Z,-3.00
2023-03-06T06:12:05.752Z,-3.10
2023-03-06T06:14:37.990Z,-3.20
2023-03-06T06:17:08.185Z,-3.30
2023-03-06T06:19:38.282Z,-3.20
2023-03-06T06:22:08.546Z,-3.20
2023-03-06T06:24:38.696Z,-3.30
2023-03-06T06:27:08.861Z,-3.30
2023-03-06T06:29:40.577Z,-3.30
2023-03-06T06:32:10.933Z,-3.20
2023-03-06T06:34:41.122Z,-3.30
2023-03-06T06:37:11.205Z,-3.40
2023-03-06T06:39:41.318Z,-3.50
2023-03-06T06:42:29.288Z,-3.60
2023-03-06T06:45:02.222Z,-3.70
2023-03-06T06:47:32.780Z,-3.90
2023-03-06T06:50:02.866Z,-4.00
2023-03-06T06:52:32.930Z,-4.10
2023-03-06T06:55:30.628Z,-4.10
2023-03-06T06:58:00.619Z,-4.10
2023-03-06T07:00:32.761Z,-4.20
2023-03-06T07:03:02.998Z,-4.30
2023-03-06T07:05:33.066Z,-4.40
2023-03-06T07:08:03.370Z,-4.50
2023-03-06T07:10:33.436Z,-4.50
2023-03-06T07:13:03.615Z,-4.60
2023-03-06T07:15:35.462Z,-4.60
2023-03-06T07:18:05.493Z,-4.60
2023-03-06T07:20:35.592Z,-4.70
2023-03-06T07:23:05.939Z,-4.70
2023-03-06T07:25:35.988Z,-4.60
2023-03-06T07:28:06.212Z,-4.40
2023-03-06T07:30:38.019Z,-4.10
2023-03-06T07:33:08.462Z,-3.80
2023-03-06T07:35:38.929Z,-3.50
2023-03-06T07:38:08.979Z,-3.10
2023-03-06T07:40:39.857Z,-2.70
2023-03-06T07:43:19.209Z,-2.40
2023-03-06T07:45:59.684Z,-2.10
2023-03-06T07:48:30.081Z,-1.80
2023-03-06T07:51:01.937Z,-1.70
2023-03-06T07:53:32.838Z,-1.60
2023-03-06T07:56:05.391Z,-1.50
2023-03-06T07:58:35.657Z,-1.30
2023-03-06T08:01:12.466Z,-1.20
2023-03-06T08:03:42.644Z,-1.10
2023-03-06T08:06:14.622Z,-1.00
2023-03-06T08:08:47.206Z,-1.00
2023-03-06T08:11:19.598Z,-1.00
2023-03-06T08:13:50.197Z,-0.90
2023-03-06T08:16:22.841Z,-0.90
2023-03-06T08:18:53.268Z,-0.90
2023-03-06T08:21:25.651Z,-0.90
2023-03-06T08:23:56.356Z,-0.90
2023-03-06T08:26:28.378Z,-0.80
2023-03-06T08:29:00.212Z,-0.80
2023-03-06T08:31:34.126Z,-0.80
2023-03-06T08:34:06.098Z,-0.70
2023-03-06T08:36:36.477Z,-0.80
2023-03-06T08:39:07.557Z,-0.80
2023-03-06T08:41:38.471Z,-0.90
2023-03-06T08:44:08.812Z,-1.00
2023-03-06T08:46:40.797Z,-1.00
2023-03-06T08:49:11.769Z,-1.10
2023-03-06T08:51:41.940Z,-1.10
2023-03-06T08:54:15.124Z,-1.10
2023-03-06T08:56:45.240Z,-1.10
2023-03-06T08:59:15.732Z,-1.20
2023-03-06T09:01:47.444Z,-1.40
2023-03-06T09:04:17.474Z,-1.40
2023-03-06T09:06:47.661Z,-1.40
2023-03-06T09:09:18.402Z,-1.50
2023-03-06T09:11:48.586Z,-1.50
2023-03-06T09:14:18.644Z,-1.50
2023-03-06T09:16:50.341Z,-1.50
2023-03-06T09:19:20.711Z,-1.60
2023-03-06T09:21:50.790Z,-1.70
2023-03-06T09:24:20.835Z,-1.90
2023-03-06T09:26:51.717Z,-2.00
2023-03-06T09:29:21.854Z,-2.10
2023-03-06T09:31:53.715Z,-2.20
2023-03-06T09:34:24.037Z,-2.20
2023-03-06T09:36:57.163Z,-2.20
2023-03-06T09:39:28.289Z,-2.20
2023-03-06T09:41:59.430Z,-2.30
2023-03-06T09:44:31.989Z,-2.30
2023-03-06T09:47:36.117Z,-2.30
2023-03-06T09:50:18.688Z,-2.30
2023-03-06T09:53:00.830Z,-2.30
2023-03-06T09:55:34.756Z,-2.30
2023-03-06T09:58:07.600Z,-2.30
2023-03-06T10:00:42.479Z,-2.30
2023-03-06T10:03:25.022Z,-2.30
2023-03-06T10:06:02.728Z,-2.40
2023-03-06T10:08:40.233Z,-2.50
2023-03-06T10:11:12.779Z,-2.50
2023-03-06T10:13:45.990Z,-2.50
2023-03-06T10:16:27.914Z,-2.50
2023-03-06T10:19:03.784Z,-2.40
2023-03-06T10:21:45.334Z,-2.40
2023-03-06T10:24:45.862Z,-2.40
2023-03-06T10:27:37.170Z,-2.40
2023-03-06T10:30:28.186Z,-2.50
2023-03-06T10:33:00.501Z,-2.50
2023-03-06T10:35:42.751Z,-2.50
2023-03-06T10:38:20.807Z,-2.50
2023-03-06T10:41:12.279Z,-2.60
2023-03-06T10:43:44.051Z,-2.50
2023-03-06T10:46:16.982Z,-2.60
2023-03-06T10:49:00.583Z,-2.50
2023-03-06T10:51:33.339Z,-2.60
2023-03-06T10:54:04.987Z,-2.60
2023-03-06T10:56:36.637Z,-2.70
2023-03-06T10:59:14.009Z,-2.90
2023-03-06T11:01:45.525Z,-3.10
2023-03-06T11:04:24.285Z,-3.20
2023-03-06T11:07:15.552Z,-3.30
2023-03-06T11:09:48.640Z,-3.20
2023-03-06T11:12:28.878Z,-3.10
2023-03-06T11:15:22.467Z,-3.10
2023-03-06T11:17:59.187Z,-3.30
2023-03-06T11:20:44.678Z,-3.40
2023-03-06T11:23:24.490Z,-3.50
2023-03-06T11:25:59.694Z,-3.60
2023-03-06T11:28:33.503Z,-3.80
2023-03-06T11:31:08.859Z,-3.90
2023-03-06T11:33:46.334Z,-3.90
2023-03-06T11:36:20.832Z,-3.80
2023-03-06T11:38:54.234Z,-3.80
2023-03-06T11:41:34.024Z,-3.70
2023-03-06T11:44:15.950Z,-3.70
2023-03-06T11:46:50.499Z,-3.70
2023-03-06T11:49:26.640Z,-3.70
2023-03-06T11:52:00.149Z,-3.90
2023-03-06T11:54:31.851Z,-4.00
2023-03-06T11:57:06.813Z,-4.20
2023-03-06T11:59:57.698Z,-4.30
2023-03-06T12:02:40.558Z,-4.30
2023-03-06T12:05:30.604Z,-4.40
2023-03-06T12:08:10.302Z,-4.50
2023-03-06T12:10:51.808Z,-4.70
2023-03-06T12:13:40.164Z,-4.70
2023-03-06T12:16:37.103Z,-4.80
2023-03-06T12:19:22.683Z,-4.80
2023-03-06T12:22:04.939Z,-4.70
2023-03-06T12:25:00.004Z,-4.60
2023-03-06T12:27:38.784Z,-4.50
2023-03-06T12:30:31.702Z,-4.50
2023-03-06T12:33:13.733Z,-4.40
2023-03-06T12:36:19.866Z,-4.20
2023-03-06T12:39:13.532Z,-4.10
2023-03-06T12:41:55.758Z,-4.00
2023-03-06T12:45:13.205Z,-4.00
2023-03-06T12:47:48.849Z,-3.90
2023-03-06T12:50:26.667Z,-3.80
2023-03-06T12:52:58.059Z,-3.70
2023-03-06T12:55:29.035Z,-3.60
2023-03-06T12:57:59.135Z,-3.50
2023-03-06T13:01:04.426Z,-3.30
2023-03-06T13:03:54.778Z,-3.20
2023-03-06T13:06:50.872Z,-3.10
2023-03-06T13:09:26.086Z,-3.00
2023-03-06T13:12:16.829Z,-3.00
2023-03-06T13:15:00.650Z,-2.90
2023-03-06T13:17:39.400Z,-2.80
2023-03-06T13:20:40.264Z,-2.70
2023-03-06T13:23:52.684Z,-2.60
2023-03-06T13:26:59.398Z,-2.50
2023-03-06T13:30:26.338Z,-2.40
2023-03-06T13:32:57.342Z,-2.30
2023-03-06T13:35:57.308Z,-2.10
2023-03-06T13:39:05.607Z,-2.00
2023-03-06T13:41:57.059Z,-1.90
2023-03-06T13:44:53.705Z,-1.90
2023-03-06T13:48:21.175Z,-1.80
2023-03-06T13:50:46.235Z,-1.80
2023-03-06T13:54:03.420Z,-1.70
2023-03-06T13:57:07.698Z,-1.60
2023-03-06T14:00:12.522Z,-1.60
2023-03-06T14:03:16.630Z,-1.50
2023-03-06T14:05:47.904Z,-1.50
2023-03-06T14:08:20.742Z,-1.40
2023-03-06T14:11:04.041Z,-1.30
2023-03-06T14:13:47.258Z,-1.20
2023-03-06T14:16:23.340Z,-1.20
2023-03-06T14:18:55.703Z,-1.20
2023-03-06T14:21:32.196Z,-1.10
2023-03-06T14:24:04.800Z,-1.00
2023-03-06T14:26:42.597Z,-1.00
2023-03-06T14:29:22.675Z,-0.90
2023-03-06T14:31:55.204Z,-0.90
2023-03-06T14:34:27.338Z,-0.90
2023-03-06T14:36:58.600Z,-0.80
2023-03-06T14:39:36.789Z,-0.70
2023-03-06T14:42:19.663Z,-0.70
2023-03-06T14:44:50.429Z,-0.70
2023-03-06T14:47:29.144Z,-0.60
2023-03-06T14:50:22.158Z,-0.50
2023-03-06T14:52:53.261Z,-0.40
2023-03-06T14:55:25.896Z,-0.40
2023-03-06T14:58:00.646Z,-0.30
2023-03-06T15:00:37.714Z,-0.30
2023-03-06T15:03:10.388Z,-0.20
2023-03-06T15:05:41.591Z,-0.10
2023-03-06T15:08:12.303Z,0.00
2023-03-06T15:10:43.923Z,0.10
2023-03-06T15:13:24.099Z,0.10
2023-03-06T15:16:05.221Z,0.30
2023-03-06T15:18:39.583Z,0.40
2023-03-06T15:21:12.452Z,0.40
2023-03-06T15:23:43.915Z,0.50
2023-03-06T15:26:29.521Z,0.60
2023-03-06T15:29:09.404Z,0.80
2023-03-06T15:31:41.638Z,0.90
2023-03-06T15:34:28.305Z,1.00
2023-03-06T15:36:59.752Z,1.10
2023-03-06T15:39:40.434Z,1.20
2023-03-06T15:42:22.593Z,1.40
2023-03-06T15:44:56.729Z,1.50
2023-03-06T15:47:27.288Z,1.60
2023-03-06T15:49:57.627Z,1.70
2023-03-06T15:52:27.646Z,1.90
2023-03-06T15:54:57.986Z,2.00
2023-03-06T15:57:29.733Z,2.20
2023-03-06T16:00:02.696Z,2.30
2023-03-06T16:02:33.756Z,2.40
2023-03-06T16:05:06.342Z,2.50
2023-03-06T16:07:36.374Z,2.50
2023-03-06T16:10:07.366Z,2.50
2023-03-06T16:12:37.458Z,2.60
2023-03-06T16:15:15.507Z,2.70
2023-03-06T16:17:45.905Z,3.00
2023-03-06T16:20:19.957Z,3.10
2023-03-06T16:22:50.846Z,3.30
2023-03-06T16:25:21.033Z,3.70
2023-03-06T16:27:56.211Z,3.90
2023-03-06T16:30:29.575Z,4.10
2023-03-06T16:32:59.975Z,4.20
2023-03-06T16:35:30.489Z,4.60
2023-03-06T16:38:00.846Z,4.80
2023-03-06T16:40:33.096Z,5.30
2023-03-06T16:43:03.262Z,5.70
2023-03-06T16:45:39.605Z,6.10
2023-03-06T16:48:10.383Z,6.00
2023-03-06T16:50:42.132Z,6.10
2023-03-06T16:53:12.217Z,6.10
2023-03-06T16:55:42.456Z,6.00
2023-03-06T16:58:12.455Z,6.00
2023-03-06T17:00:44.375Z,6.20
2023-03-06T17:03:14.567Z,6.30
2023-03-06T17:05:44.633Z,6.20
2023-03-06T17:08:15.241Z,6.20
2023-03-06T17:10:45.707Z,6.50
2023-03-06T17:13:16.365Z,6.90
2023-03-06T17:15:59.986Z,6.90
2023-03-06T17:18:31.445Z,7.00
2023-03-06T17:21:17.403Z,6.90
2023-03-06T17:23:48.598Z,6.90
2023-03-06T17:26:41.800Z,6.80
2023-03-06T17:29:40.001Z,7.10
2023-03-06T17:32:11.960Z,7.50
2023-03-06T17:34:42.189Z,7.50
2023-03-06T17:37:12.369Z,7.60
2023-03-06T17:39:42.506Z,7.70
2023-03-06T17:42:12.664Z,8.00
2023-03-06T17:44:42.875Z,7.90
2023-03-06T17:47:15.034Z,7.80
2023-03-06T17:49:45.273Z,7.40
2023-03-06T17:52:15.397Z,7.10
2023-03-06T17:54:45.537Z,7.00
2023-03-06T17:57:15.703Z,6.90
2023-03-06T17:59:49.118Z,7.10
2023-03-06T18:02:21.180Z,7.60
2023-03-06T18:04:51.385Z,8.00
2023-03-06T18:07:21.488Z,7.80
2023-03-06T18:09:52.265Z,7.80
2023-03-06T18:12:22.356Z,7.70
2023-03-06T18:14:52.700Z,7.70
2023-03-06T18:17:24.679Z,7.60
2023-03-06T18:19:54.659Z,7.70
2023-03-06T18:22:24.987Z,7.70
2023-03-06T18:24:55.254Z,7.70
2023-03-06T18:27:25.820Z,7.90
2023-03-06T18:29:56.199Z,7.90
2023-03-06T18:32:28.583Z,8.00
2023-03-06T18:34:58.790Z,8.00
2023-03-06T18:37:28.973Z,7.90
2023-03-06T18:39:59.042Z,8.20
2023-03-06T18:42:29.364Z,8.10
2023-03-06T18:44:59.618Z,7.80
2023-03-06T18:47:31.426Z,8.10
2023-03-06T18:50:03.237Z,8.30
2023-03-06T18:52:33.337Z,8.00
2023-03-06T18:55:03.525Z,8.10
2023-03-06T18:57:33.733Z,8.00
2023-03-06T19:00:03.863Z,8.00
2023-03-06T19:02:35.483Z,7.70
2023-03-06T19:05:06.004Z,7.60
2023-03-06T19:07:36.950Z,7.70
2023-03-06T19:10:07.842Z,7.60
2023-03-06T19:12:38.124Z,8.00
2023-03-06T19:15:09.039Z,7.80
2023-03-06T19:17:40.897Z,7.70
2023-03-06T19:20:12.468Z,7.60
2023-03-06T19:22:42.568Z,7.40
2023-03-06T19:25:13.286Z,7.60
2023-03-06T19:27:45.451Z,7.60
2023-03-06T19:30:17.388Z,7.60
2023-03-06T19:32:49.580Z,7.70
2023-03-06T19:35:20.037Z,7.80
2023-03-06T19:37:50.172Z,7.90
2023-03-06T19:40:20.514Z,8.20
2023-03-06T19:42:50.939Z,8.20
2023-03-06T19:45:21.186Z,8.30
2023-03-06T19:47:56.107Z,8.10
2023-03-06T19:50:30.074Z,7.90
2023-03-06T19:53:00.352Z,7.50
2023-03-06T19:55:30.753Z,7.30
2023-03-06T19:58:01.136Z,7.00
2023-03-06T20:00:31.617Z,7.00
2023-03-06T20:03:03.361Z,7.00
2023-03-06T20:05:33.431Z,7.10
2023-03-06T20:08:04.452Z,7.20
2023-03-06T20:10:34.519Z,7.30
2023-03-06T20:13:04.907Z,7.00
2023-03-06T20:15:35.799Z,6.90
2023-03-06T20:18:08.006Z,7.00
2023-03-06T20:20:39.795Z,6.90
2023-03-06T20:23:10.208Z,6.70
2023-03-06T20:25:40.459Z,6.60
2023-03-06T20:28:10.568Z,6.60
2023-03-06T20:30:40.651Z,6.80
2023-03-06T20:33:12.529Z,6.90
2023-03-06T20:35:43.987Z,7.10
2023-03-06T20:38:14.420Z,7.00
2023-03-06T20:40:45.424Z,6.90
2023-03-06T20:43:15.588Z,7.00
2023-03-06T20:45:45.720Z,7.40
2023-03-06T20:48:18.627Z,7.70
2023-03-06T20:50:48.665Z,7.80
2023-03-06T20:53:19.578Z,7.80
2023-03-06T20:55:50.632Z,7.90
2023-03-06T20:58:22.261Z,7.80
2023-03-06T21:00:52.281Z,7.80
2023-03-06T21:03:24.065Z,7.80
2023-03-06T21:05:54.280Z,8.00
2023-03-06T21:08:25.313Z,8.00
2023-03-06T21:10:55.580Z,7.70
2023-03-06T21:13:25.849Z,7.50
2023-03-06T21:15:55.912Z,7.40
2023-03-06T21:18:27.811Z,7.30
2023-03-06T21:20:57.974Z,7.20
2023-03-06T21:23:28.392Z,7.00
2023-03-06T21:25:58.407Z,7.00
2023-03-06T21:28:29.152Z,6.90
2023-03-06T21:31:02.242Z,6.70
2023-03-06T21:33:34.233Z,6.50
2023-03-06T21:36:04.976Z,6.60
2023-03-06T21:38:35.328Z,6.50
2023-03-06T21:41:10.924Z,6.50
2023-03-06T21:43:41.477Z,6.50
2023-03-06T21:46:11.664Z,6.50
2023-03-06T21:48:43.472Z,6.40
2023-03-06T21:51:18.956Z,6.20
2023-03-06T21:53:50.084Z,6.10
2023-03-06T21:56:22.130Z,5.80
2023-03-06T21:58:52.390Z,5.60
2023-03-06T22:01:25.104Z,5.40
2023-03-06T22:03:57.566Z,5.00
2023-03-06T22:06:29.508Z,4.80
2023-03-06T22:09:00.896Z,4.60
2023-03-06T22:11:37.418Z,4.40
2023-03-06T22:14:07.811Z,4.30
2023-03-06T22:16:37.853Z,4.20
2023-03-06T22:19:09.663Z,4.00
2023-03-06T22:21:39.815Z,4.00
2023-03-06T22:24:10.480Z,3.90
2023-03-06T22:26:40.492Z,3.80
2023-03-06T22:29:12.618Z,3.70
2023-03-06T22:31:42.826Z,3.60
2023-03-06T22:34:14.599Z,3.50
2023-03-06T22:36:45.840Z,3.30
2023-03-06T22:39:16.274Z,3.20
2023-03-06T22:41:46.379Z,3.00
2023-03-06T22:44:20.129Z,2.90
2023-03-06T22:46:50.265Z,2.80
2023-03-06T22:49:21.971Z,2.70
2023-03-06T22:51:52.020Z,2.60
2023-03-06T22:54:22.142Z,2.40
2023-03-06T22:56:52.220Z,2.30
2023-03-06T22:59:22.510Z,2.30
2023-03-06T23:01:52.543Z,2.30
2023-03-06T23:04:24.456Z,2.30
2023-03-06T23:06:54.476Z,2.10
2023-03-06T23:09:26.163Z,2.00
2023-03-06T23:11:56.591Z,1.90
2023-03-06T23:14:26.826Z,1.70
2023-03-06T23:16:56.896Z,1.60
2023-03-06T23:19:28.810Z,1.50
2023-03-06T23:21:58.891Z,1.30
2023-03-06T23:24:29.303Z,1.20
2023-03-06T23:26:59.514Z,1.20
2023-03-06T23:29:45.779Z,1.20
2023-03-06T23:32:17.298Z,1.10
2023-03-06T23:34:50.781Z,1.00
2023-03-06T23:37:21.721Z,0.90
2023-03-06T23:39:51.939Z,0.80
2023-03-06T23:42:23.677Z,0.60
2023-03-06T23:44:54.620Z,0.30
2023-03-06T23:47:24.980Z,0.10
2023-03-06T23:49:57.742Z,0.00
2023-03-06T23:52:27.979Z,-0.20
2023-03-06T23:54:58.372Z,-0.40
2023-03-06T23:57:29.365Z,-0.50
2023-03-06T23:59:59.686Z,-0.60
